Terminal Aerodrome Forecast
Issued by NWS

Home | Current Version | Previous Version | Text Only | Print | Product List | Glossary On
Versions: 1 2 3 4 5 6 7 8 9 10 11 12 13 14 15
973
FTUS41 KBTV 221720
TAFMSS
TAF
KMSS 221720Z 2218/2318 23011KT P6SM SCT200
     FM230000 22004KT P6SM VCSH BKN060
     FM230400 16005KT 5SM -SHRA BR OVC050
     FM230800 20007KT 5SM -SHRA BR OVC035 WS020/23040KT
     FM231400 21010KT 6SM SHRA BR OVC030
     FM231700 22013G19KT 5SM SHRA BR OVC020=

USA.gov is the U.S. government's official web portal to all federal, state and local government web resources and services.